This is the latest recevied weather packets stored in our database for station/object WQ5C-13. If no packets are shown the sender has not sent any weather packets the latest 10 day(s).
| Time | Temp. | Humidity | Pressure | Rain* | Wind** | Luminosity | Snow |
|---|---|---|---|---|---|---|---|
| 1777515615 | 18.89° C | 88% | 1011.8 hPa | 0 mm | - | - | - |
| 1777514415 | 18.89° C | 88% | 1011.3 hPa | 0 mm | - | - | - |
| 1777513835 | 18.89° C | 89% | 1011.4 hPa | 0 mm | - | - | - |
| 1777512015 | 18.89° C | 89% | 1011.4 hPa | 0 mm | - | - | - |
| 1777508415 | 20° C | 88% | 1010.5 hPa | 0 mm | - | - | - |
| 1777507816 | 20.56° C | 88% | 1010.5 hPa | 0 mm | - | - | - |
| 1777505415 | 23.89° C | 84% | 1009.4 hPa | 0 mm | - | - | - |
| 1777503615 | 25.56° C | 80% | 1009.4 hPa | 0 mm | - | - | - |
| 1777501215 | 25° C | 81% | 1009.5 hPa | 0 mm | - | - | - |
| 1777500615 | 25° C | 83% | 1009.5 hPa | 0 mm | - | - | - |
| 1777488635 | 24.44° C | 84% | 1012.2 hPa | 0 mm | - | - | - |
| 1777486835 | 24.44° C | 83% | 1012 hPa | 0 mm | - | - | - |
| 1777486215 | 25° C | 83% | 1012 hPa | 0 mm | - | - | - |
| 1777483815 | 25° C | 83% | 1012.4 hPa | 0 mm | - | - | - |
| 1777481416 | 24.44° C | 84% | 1012.8 hPa | 0 mm | - | - | - |
| 1777478415 | 24.44° C | 85% | 1012.9 hPa | 0 mm | - | - | - |
| 1777472415 | 23.89° C | 90% | 1012.5 hPa | 0 mm | - | - | - |
| 1777469415 | 23.33° C | 92% | 1012.3 hPa | 0 mm | - | - | - |
| 1777468816 | 23.33° C | 93% | 1012.4 hPa | 0 mm | - | - | - |
| 1777461616 | 23.33° C | 92% | 1010.9 hPa | 0 mm | - | - | - |
| 1777459815 | 23.33° C | 90% | 1011 hPa | 0 mm | - | - | - |
| 1777457416 | 23.33° C | 89% | 1011.2 hPa | 0 mm | - | - | - |
| 1777453815 | 23.33° C | 88% | 1011.3 hPa | 0 mm | - | - | - |
| 1777446616 | 23.89° C | 87% | 1011.7 hPa | 0 mm | - | - | - |
| 1777445415 | 23.89° C | 86% | 1012.1 hPa | 0 mm | - | - | - |
* Rain latest hour (hover to see other rain measurements)
** Current wind speed in m/s (hover to see current wind gust speed)